Main page
METAR-TAF:

METAR-TAF

Airports :

Cazaux Air Base

Cazaux, France

latitude: 44-32N, longitude: 001-08W, elevation: 25 m

Current weather observation

The report was made 41 minutes ago, at 05:00 UTC
Wind 1 kt from the East/Northeast
Temperature 15°C
Humidity 88%
Pressure 1016 hPa
Visibility 10 km or more
no clouds below 1500 m and no cumulonimbus

METAR: LFBC 240500Z AUTO 07001KT CAVOK 15/13 Q1016

Time: 07:41 (05:41 UTC)

Forecast

The report was made 21 hours and 41 minutes ago, at 08:00 UTC
Forecast valid from 23 at 09 UTC to 24 at 09 UTC
Wind 5 kt from the South/Southeast
Visibility 10 km or more
no clouds below 1500 m and no cumulonimbus
Probability 40% :
Temporary
from 23 at 15 UTC to 23 at 18 UTC
Wind 10 kt from the Northwest

TAF: LFBC 230800Z 2309/2409 16005KT CAVOK PROB40 TEMPO 2315/2318 32010KT

Weather observations and forecasts of more than 4000 airports (METAR and TAF reports).

The available stations are represented by yellow and red dots on the map.

Hover mouse over dot to see the name of the station.

Then click to see weather observations and forecasts.

To change the map : click on the green buttons with a black cross to zoom in, on the green button with a dash to zoom out, or on the green arrows for adjacent maps.


METAR-TAF: